sensor_id;sensor_type;location;lat;lon;timestamp;pressure;altitude;pressure_sealevel;temperature;humidity
19783;BME280;10051;40.294;-3.754;2024-02-16T00:00:58;94217.34;;;11.35;100.00
19783;BME280;10051;40.294;-3.754;2024-02-16T00:03:23;94278.97;;;11.77;100.00
19783;BME280;10051;40.294;-3.754;2024-02-16T00:05:49;94287.97;;;11.76;100.00
19783;BME280;10051;40.294;-3.754;2024-02-16T00:08:17;94256.47;;;11.47;100.00
19783;BME280;10051;40.294;-3.754;2024-02-16T00:10:43;94259.31;;;11.50;100.00
19783;BME280;10051;40.294;-3.754;2024-02-16T00:13:09;94331.97;;;12.00;100.00
19783;BME280;10051;40.294;-3.754;2024-02-16T00:15:35;94334.56;;;12.05;100.00
19783;BME280;10051;40.294;-3.754;2024-02-16T00:18:00;94283.66;;;11.61;100.00
19783;BME280;10051;40.294;-3.754;2024-02-16T00:20:26;94342.59;;;11.89;100.00
19783;BME280;10051;40.294;-3.754;2024-02-16T00:22:53;94304.81;;;11.75;100.00
19783;BME280;10051;40.294;-3.754;2024-02-16T00:25:18;94268.38;;;11.39;100.00
19783;BME280;10051;40.294;-3.754;2024-02-16T00:27:45;94333.06;;;11.94;100.00
19783;BME280;10051;40.294;-3.754;2024-02-16T00:30:11;94345.19;;;11.95;100.00
19783;BME280;10051;40.294;-3.754;2024-02-16T00:32:36;94318.09;;;11.70;100.00
19783;BME280;10051;40.294;-3.754;2024-02-16T00:35:02;94201.69;;;11.00;100.00
19783;BME280;10051;40.294;-3.754;2024-02-16T00:37:28;94304.66;;;11.66;100.00
19783;BME280;10051;40.294;-3.754;2024-02-16T00:39:54;94260.97;;;11.41;100.00
19783;BME280;10051;40.294;-3.754;2024-02-16T00:42:20;94202.97;;;11.03;100.00
19783;BME280;10051;40.294;-3.754;2024-02-16T00:44:48;94244.38;;;11.21;100.00
19783;BME280;10051;40.294;-3.754;2024-02-16T00:47:14;94250.63;;;11.25;100.00
19783;BME280;10051;40.294;-3.754;2024-02-16T00:49:43;94347.00;;;11.99;100.00
19783;BME280;10051;40.294;-3.754;2024-02-16T00:52:08;94283.56;;;11.47;100.00
19783;BME280;10051;40.294;-3.754;2024-02-16T00:54:36;94351.69;;;12.02;100.00
19783;BME280;10051;40.294;-3.754;2024-02-16T00:57:01;94268.06;;;11.45;100.00
19783;BME280;10051;40.294;-3.754;2024-02-16T00:59:30;94209.28;;;11.01;100.00
19783;BME280;10051;40.294;-3.754;2024-02-16T01:01:56;94358.63;;;11.93;100.00
19783;BME280;10051;40.294;-3.754;2024-02-16T01:04:22;94316.50;;;11.69;100.00
19783;BME280;10051;40.294;-3.754;2024-02-16T01:06:48;94336.69;;;11.79;100.00
19783;BME280;10051;40.294;-3.754;2024-02-16T01:09:14;94275.00;;;11.36;100.00
19783;BME280;10051;40.294;-3.754;2024-02-16T01:11:42;94356.91;;;11.83;100.00
19783;BME280;10051;40.294;-3.754;2024-02-16T01:14:08;94318.75;;;11.56;100.00
19783;BME280;10051;40.294;-3.754;2024-02-16T01:16:34;94337.59;;;11.69;100.00
19783;BME280;10051;40.294;-3.754;2024-02-16T01:19:01;94309.53;;;11.54;100.00
19783;BME280;10051;40.294;-3.754;2024-02-16T01:21:26;94310.34;;;11.54;100.00
19783;BME280;10051;40.294;-3.754;2024-02-16T01:23:52;94243.53;;;10.96;100.00
19783;BME280;10051;40.294;-3.754;2024-02-16T01:26:18;94259.25;;;11.07;100.00
19783;BME280;10051;40.294;-3.754;2024-02-16T01:28:44;94278.44;;;11.31;100.00
19783;BME280;10051;40.294;-3.754;2024-02-16T01:31:09;94356.06;;;11.88;100.00
19783;BME280;10051;40.294;-3.754;2024-02-16T01:33:36;94240.78;;;11.12;100.00
19783;BME280;10051;40.294;-3.754;2024-02-16T01:36:03;94249.13;;;11.19;100.00
19783;BME280;10051;40.294;-3.754;2024-02-16T01:38:28;94308.97;;;11.57;100.00
19783;BME280;10051;40.294;-3.754;2024-02-16T01:40:54;94311.41;;;11.53;100.00
19783;BME280;10051;40.294;-3.754;2024-02-16T01:43:20;94361.59;;;11.86;100.00
19783;BME280;10051;40.294;-3.754;2024-02-16T01:45:46;94311.13;;;11.55;100.00
19783;BME280;10051;40.294;-3.754;2024-02-16T01:48:13;94261.78;;;11.17;100.00
19783;BME280;10051;40.294;-3.754;2024-02-16T01:50:40;94360.09;;;11.80;100.00
19783;BME280;10051;40.294;-3.754;2024-02-16T01:53:08;94312.53;;;11.47;100.00
19783;BME280;10051;40.294;-3.754;2024-02-16T01:55:34;94324.28;;;11.55;100.00
19783;BME280;10051;40.294;-3.754;2024-02-16T01:58:00;94365.34;;;11.80;100.00
19783;BME280;10051;40.294;-3.754;2024-02-16T02:00:26;94252.63;;;11.09;100.00
19783;BME280;10051;40.294;-3.754;2024-02-16T02:02:51;94286.59;;;11.35;100.00
19783;BME280;10051;40.294;-3.754;2024-02-16T02:05:17;94346.47;;;11.73;100.00
19783;BME280;10051;40.294;-3.754;2024-02-16T02:07:43;94275.94;;;11.21;100.00
19783;BME280;10051;40.294;-3.754;2024-02-16T02:10:09;94313.53;;;11.51;100.00
19783;BME280;10051;40.294;-3.754;2024-02-16T02:12:38;94347.53;;;11.72;100.00
19783;BME280;10051;40.294;-3.754;2024-02-16T02:15:05;94319.41;;;11.43;100.00
19783;BME280;10051;40.294;-3.754;2024-02-16T02:17:30;94358.88;;;11.72;100.00
19783;BME280;10051;40.294;-3.754;2024-02-16T02:19:56;94340.84;;;11.60;100.00
19783;BME280;10051;40.294;-3.754;2024-02-16T02:22:22;94236.16;;;10.98;100.00
19783;BME280;10051;40.294;-3.754;2024-02-16T02:24:48;94362.78;;;11.75;100.00
19783;BME280;10051;40.294;-3.754;2024-02-16T02:27:14;94269.22;;;11.10;100.00
19783;BME280;10051;40.294;-3.754;2024-02-16T02:29:41;94361.72;;;11.76;100.00
19783;BME280;10051;40.294;-3.754;2024-02-16T02:32:10;94371.31;;;11.67;100.00
19783;BME280;10051;40.294;-3.754;2024-02-16T02:34:36;94264.09;;;10.94;100.00
19783;BME280;10051;40.294;-3.754;2024-02-16T02:37:02;94343.25;;;11.27;100.00
19783;BME280;10051;40.294;-3.754;2024-02-16T02:39:29;94306.56;;;11.12;100.00
19783;BME280;10051;40.294;-3.754;2024-02-16T02:41:55;94282.19;;;11.01;100.00
19783;BME280;10051;40.294;-3.754;2024-02-16T02:44:20;94238.53;;;10.70;100.00
19783;BME280;10051;40.294;-3.754;2024-02-16T02:46:46;94280.44;;;10.91;100.00
19783;BME280;10051;40.294;-3.754;2024-02-16T02:49:12;94351.81;;;11.43;100.00
19783;BME280;10051;40.294;-3.754;2024-02-16T02:51:38;94266.03;;;10.83;100.00
19783;BME280;10051;40.294;-3.754;2024-02-16T02:54:03;94291.69;;;10.97;100.00
19783;BME280;10051;40.294;-3.754;2024-02-16T02:56:29;94366.06;;;11.37;100.00
19783;BME280;10051;40.294;-3.754;2024-02-16T02:58:54;94374.47;;;11.39;99.53
19783;BME280;10051;40.294;-3.754;2024-02-16T03:01:20;94333.44;;;11.09;99.77
19783;BME280;10051;40.294;-3.754;2024-02-16T03:03:47;94381.59;;;11.39;100.00
19783;BME280;10051;40.294;-3.754;2024-02-16T03:06:17;94365.44;;;11.21;100.00
19783;BME280;10051;40.294;-3.754;2024-02-16T03:08:43;94366.06;;;11.08;100.00
19783;BME280;10051;40.294;-3.754;2024-02-16T03:11:09;94385.94;;;11.24;100.00
19783;BME280;10051;40.294;-3.754;2024-02-16T03:13:34;94298.00;;;10.66;99.78
19783;BME280;10051;40.294;-3.754;2024-02-16T03:16:00;94393.19;;;11.38;99.24
19783;BME280;10051;40.294;-3.754;2024-02-16T03:18:29;94262.34;;;10.50;99.26
19783;BME280;10051;40.294;-3.754;2024-02-16T03:20:56;94292.75;;;10.66;99.26
19783;BME280;10051;40.294;-3.754;2024-02-16T03:23:22;94381.28;;;11.16;99.97
19783;BME280;10051;40.294;-3.754;2024-02-16T03:25:48;94331.75;;;10.89;99.34
19783;BME280;10051;40.294;-3.754;2024-02-16T03:28:13;94345.66;;;10.94;100.00
19783;BME280;10051;40.294;-3.754;2024-02-16T03:30:40;94362.94;;;11.06;99.96
19783;BME280;10051;40.294;-3.754;2024-02-16T03:33:05;94353.75;;;11.03;99.05
19783;BME280;10051;40.294;-3.754;2024-02-16T03:35:31;94390.41;;;11.24;98.51
19783;BME280;10051;40.294;-3.754;2024-02-16T03:37:57;94309.06;;;10.63;98.83
19783;BME280;10051;40.294;-3.754;2024-02-16T03:40:24;94286.06;;;10.45;99.43
19783;BME280;10051;40.294;-3.754;2024-02-16T03:42:50;94316.38;;;10.71;98.86
19783;BME280;10051;40.294;-3.754;2024-02-16T03:45:16;94371.19;;;10.94;99.36
19783;BME280;10051;40.294;-3.754;2024-02-16T03:47:42;94349.41;;;10.83;99.56
19783;BME280;10051;40.294;-3.754;2024-02-16T03:50:08;94333.72;;;10.73;98.90
19783;BME280;10051;40.294;-3.754;2024-02-16T03:52:33;94336.44;;;10.57;100.00
19783;BME280;10051;40.294;-3.754;2024-02-16T03:54:59;94388.03;;;10.93;98.58
19783;BME280;10051;40.294;-3.754;2024-02-16T03:57:25;94407.69;;;11.00;99.34
19783;BME280;10051;40.294;-3.754;2024-02-16T03:59:50;94414.75;;;11.05;99.40
19783;BME280;10051;40.294;-3.754;2024-02-16T04:02:16;94261.09;;;9.97;99.53
19783;BME280;10051;40.294;-3.754;2024-02-16T04:04:42;94297.81;;;10.12;98.80
19783;BME280;10051;40.294;-3.754;2024-02-16T04:07:07;94360.69;;;10.49;100.00
19783;BME280;10051;40.294;-3.754;2024-02-16T04:09:36;94375.38;;;10.55;99.98
19783;BME280;10051;40.294;-3.754;2024-02-16T04:12:02;94367.47;;;10.60;99.71
19783;BME280;10051;40.294;-3.754;2024-02-16T04:14:29;94386.38;;;10.62;98.86
19783;BME280;10051;40.294;-3.754;2024-02-16T04:16:56;94337.38;;;10.32;99.19
19783;BME280;10051;40.294;-3.754;2024-02-16T04:19:25;94437.28;;;10.82;100.00
19783;BME280;10051;40.294;-3.754;2024-02-16T04:21:51;94334.31;;;10.14;98.87
19783;BME280;10051;40.294;-3.754;2024-02-16T04:24:17;94381.72;;;10.49;99.73
19783;BME280;10051;40.294;-3.754;2024-02-16T04:26:43;94437.31;;;10.77;99.56
19783;BME280;10051;40.294;-3.754;2024-02-16T04:29:09;94390.66;;;10.48;99.37
19783;BME280;10051;40.294;-3.754;2024-02-16T04:31:34;94385.41;;;10.48;98.47
19783;BME280;10051;40.294;-3.754;2024-02-16T04:34:00;94369.72;;;10.32;98.52
19783;BME280;10051;40.294;-3.754;2024-02-16T04:36:27;94289.59;;;9.69;99.84
19783;BME280;10051;40.294;-3.754;2024-02-16T04:38:52;94416.47;;;10.40;100.00
19783;BME280;10051;40.294;-3.754;2024-02-16T04:41:20;94398.59;;;10.37;99.61
19783;BME280;10051;40.294;-3.754;2024-02-16T04:43:45;94338.81;;;10.03;98.92
19783;BME280;10051;40.294;-3.754;2024-02-16T04:46:17;94451.50;;;10.81;98.51
19783;BME280;10051;40.294;-3.754;2024-02-16T04:48:43;94461.72;;;10.88;98.35
19783;BME280;10051;40.294;-3.754;2024-02-16T04:51:10;94383.44;;;10.19;98.93
19783;BME280;10051;40.294;-3.754;2024-02-16T04:53:36;94459.88;;;10.83;98.36
19783;BME280;10051;40.294;-3.754;2024-02-16T04:56:01;94474.19;;;10.71;98.76
19783;BME280;10051;40.294;-3.754;2024-02-16T04:58:30;94415.97;;;10.33;99.38
19783;BME280;10051;40.294;-3.754;2024-02-16T05:00:56;94434.59;;;10.37;100.00
19783;BME280;10051;40.294;-3.754;2024-02-16T05:03:22;94471.81;;;10.70;100.00
19783;BME280;10051;40.294;-3.754;2024-02-16T05:05:48;94478.13;;;10.69;100.00
19783;BME280;10051;40.294;-3.754;2024-02-16T05:08:14;94441.94;;;10.50;100.00
19783;BME280;10051;40.294;-3.754;2024-02-16T05:10:40;94410.75;;;10.23;99.52
19783;BME280;10051;40.294;-3.754;2024-02-16T05:13:05;94488.91;;;10.73;99.40
19783;BME280;10051;40.294;-3.754;2024-02-16T05:15:31;94448.25;;;10.49;99.21
19783;BME280;10051;40.294;-3.754;2024-02-16T05:17:57;94444.03;;;10.53;98.76
19783;BME280;10051;40.294;-3.754;2024-02-16T05:20:23;94443.78;;;10.45;99.43
19783;BME280;10051;40.294;-3.754;2024-02-16T05:22:48;94413.34;;;10.28;98.62
19783;BME280;10051;40.294;-3.754;2024-02-16T05:25:18;94491.25;;;10.74;98.29
19783;BME280;10051;40.294;-3.754;2024-02-16T05:27:45;94454.03;;;10.51;98.98
19783;BME280;10051;40.294;-3.754;2024-02-16T05:30:11;94489.09;;;10.81;97.57
19783;BME280;10051;40.294;-3.754;2024-02-16T05:32:40;94433.81;;;10.36;98.13
19783;BME280;10051;40.294;-3.754;2024-02-16T05:35:06;94488.41;;;10.65;98.87
19783;BME280;10051;40.294;-3.754;2024-02-16T05:37:47;94491.00;;;10.70;99.01
19783;BME280;10051;40.294;-3.754;2024-02-16T05:40:15;94493.16;;;10.63;99.52
19783;BME280;10051;40.294;-3.754;2024-02-16T05:42:52;94429.13;;;10.28;99.71
19783;BME280;10051;40.294;-3.754;2024-02-16T05:45:19;94443.03;;;10.29;100.00
19783;BME280;10051;40.294;-3.754;2024-02-16T05:47:46;94473.41;;;10.61;99.38
19783;BME280;10051;40.294;-3.754;2024-02-16T05:50:13;94450.63;;;10.40;99.39
19783;BME280;10051;40.294;-3.754;2024-02-16T05:52:40;94436.50;;;10.26;98.85
19783;BME280;10051;40.294;-3.754;2024-02-16T05:55:07;94497.88;;;10.66;99.71
19783;BME280;10051;40.294;-3.754;2024-02-16T05:57:33;94499.69;;;10.71;99.77
19783;BME280;10051;40.294;-3.754;2024-02-16T05:59:59;94457.44;;;10.47;99.80
19783;BME280;10051;40.294;-3.754;2024-02-16T06:02:25;94414.97;;;10.14;98.93
19783;BME280;10051;40.294;-3.754;2024-02-16T06:04:51;94430.44;;;10.25;99.53
19783;BME280;10051;40.294;-3.754;2024-02-16T06:07:17;94493.16;;;10.63;100.00
19783;BME280;10051;40.294;-3.754;2024-02-16T06:09:43;94472.16;;;10.53;98.76
19783;BME280;10051;40.294;-3.754;2024-02-16T06:12:08;94486.25;;;10.78;97.66
19783;BME280;10051;40.294;-3.754;2024-02-16T06:14:35;94512.75;;;10.86;98.55
19783;BME280;10051;40.294;-3.754;2024-02-16T06:17:02;94373.00;;;9.98;97.49
19783;BME280;10051;40.294;-3.754;2024-02-16T06:19:28;94485.72;;;10.76;97.66
19783;BME280;10051;40.294;-3.754;2024-02-16T06:21:54;94430.66;;;10.39;97.04
19783;BME280;10051;40.294;-3.754;2024-02-16T06:24:23;94499.13;;;10.79;98.26
19783;BME280;10051;40.294;-3.754;2024-02-16T06:26:49;94449.03;;;10.45;98.45
19783;BME280;10051;40.294;-3.754;2024-02-16T06:29:17;94518.03;;;10.81;98.58
19783;BME280;10051;40.294;-3.754;2024-02-16T06:31:43;94500.97;;;10.79;97.71
19783;BME280;10051;40.294;-3.754;2024-02-16T06:34:08;94474.75;;;10.58;98.06
19783;BME280;10051;40.294;-3.754;2024-02-16T06:36:34;94496.03;;;10.62;98.82
19783;BME280;10051;40.294;-3.754;2024-02-16T06:39:00;94482.13;;;10.56;98.60
19783;BME280;10051;40.294;-3.754;2024-02-16T06:41:27;94533.81;;;10.86;100.00
19783;BME280;10051;40.294;-3.754;2024-02-16T06:43:52;94501.59;;;10.55;99.89
19783;BME280;10051;40.294;-3.754;2024-02-16T06:46:18;94494.56;;;10.40;100.00
19783;BME280;10051;40.294;-3.754;2024-02-16T06:48:43;94517.13;;;10.51;100.00
19783;BME280;10051;40.294;-3.754;2024-02-16T06:51:09;94470.69;;;10.10;100.00
19783;BME280;10051;40.294;-3.754;2024-02-16T06:53:35;94472.56;;;10.00;100.00
19783;BME280;10051;40.294;-3.754;2024-02-16T06:56:00;94489.63;;;10.12;100.00
19783;BME280;10051;40.294;-3.754;2024-02-16T06:58:26;94508.00;;;10.18;100.00
19783;BME280;10051;40.294;-3.754;2024-02-16T07:00:51;94593.06;;;10.68;100.00
19783;BME280;10051;40.294;-3.754;2024-02-16T07:03:17;94567.63;;;10.43;100.00
19783;BME280;10051;40.294;-3.754;2024-02-16T07:05:43;94598.88;;;10.55;100.00
19783;BME280;10051;40.294;-3.754;2024-02-16T07:08:09;94459.75;;;9.72;100.00
19783;BME280;10051;40.294;-3.754;2024-02-16T07:10:34;94478.91;;;9.83;100.00
19783;BME280;10051;40.294;-3.754;2024-02-16T07:13:00;94609.38;;;10.70;100.00
19783;BME280;10051;40.294;-3.754;2024-02-16T07:15:26;94572.06;;;10.48;100.00
19783;BME280;10051;40.294;-3.754;2024-02-16T07:17:53;94531.13;;;10.10;100.00
19783;BME280;10051;40.294;-3.754;2024-02-16T07:20:18;94605.19;;;10.59;100.00
19783;BME280;10051;40.294;-3.754;2024-02-16T07:22:44;94508.31;;;9.90;100.00
19783;BME280;10051;40.294;-3.754;2024-02-16T07:25:12;94588.38;;;10.50;100.00
19783;BME280;10051;40.294;-3.754;2024-02-16T07:27:38;94550.56;;;10.15;100.00
19783;BME280;10051;40.294;-3.754;2024-02-16T07:30:04;94546.38;;;10.14;100.00
19783;BME280;10051;40.294;-3.754;2024-02-16T07:32:30;94581.06;;;10.21;100.00
19783;BME280;10051;40.294;-3.754;2024-02-16T07:34:55;94532.22;;;9.89;100.00
19783;BME280;10051;40.294;-3.754;2024-02-16T07:37:21;94593.66;;;10.29;100.00
19783;BME280;10051;40.294;-3.754;2024-02-16T07:39:46;94662.47;;;10.78;100.00
19783;BME280;10051;40.294;-3.754;2024-02-16T07:42:12;94614.94;;;10.43;100.00
19783;BME280;10051;40.294;-3.754;2024-02-16T07:44:41;94637.56;;;10.54;100.00
19783;BME280;10051;40.294;-3.754;2024-02-16T07:47:07;94551.91;;;10.02;100.00
19783;BME280;10051;40.294;-3.754;2024-02-16T07:49:32;94589.69;;;10.32;100.00
19783;BME280;10051;40.294;-3.754;2024-02-16T07:51:58;94634.09;;;10.59;100.00
19783;BME280;10051;40.294;-3.754;2024-02-16T07:54:24;94531.19;;;9.79;100.00
19783;BME280;10051;40.294;-3.754;2024-02-16T07:56:49;94574.22;;;10.04;100.00
19783;BME280;10051;40.294;-3.754;2024-02-16T07:59:15;94576.09;;;10.04;100.00
19783;BME280;10051;40.294;-3.754;2024-02-16T08:01:41;94627.31;;;10.27;100.00
19783;BME280;10051;40.294;-3.754;2024-02-16T08:04:09;94644.13;;;10.26;100.00
19783;BME280;10051;40.294;-3.754;2024-02-16T08:06:35;94670.94;;;10.49;100.00
19783;BME280;10051;40.294;-3.754;2024-02-16T08:09:01;94670.94;;;10.49;99.74
19783;BME280;10051;40.294;-3.754;2024-02-16T08:11:26;94603.66;;;10.01;99.20
19783;BME280;10051;40.294;-3.754;2024-02-16T08:13:52;94665.44;;;10.50;98.14
19783;BME280;10051;40.294;-3.754;2024-02-16T08:16:18;94586.84;;;10.02;98.57
19783;BME280;10051;40.294;-3.754;2024-02-16T08:18:44;94725.03;;;10.96;97.83
19783;BME280;10051;40.294;-3.754;2024-02-16T08:21:10;94624.66;;;10.32;97.28
19783;BME280;10051;40.294;-3.754;2024-02-16T08:23:39;94607.59;;;10.04;97.25
19783;BME280;10051;40.294;-3.754;2024-02-16T08:26:04;94717.97;;;10.86;96.05
19783;BME280;10051;40.294;-3.754;2024-02-16T08:28:30;94615.72;;;10.33;95.09
19783;BME280;10051;40.294;-3.754;2024-02-16T08:30:56;94601.53;;;10.24;94.20
19783;BME280;10051;40.294;-3.754;2024-02-16T08:33:21;94659.63;;;10.53;95.25
19783;BME280;10051;40.294;-3.754;2024-02-16T08:35:47;94650.94;;;10.53;95.49
19783;BME280;10051;40.294;-3.754;2024-02-16T08:38:12;94628.34;;;10.41;95.04
19783;BME280;10051;40.294;-3.754;2024-02-16T08:40:38;94620.75;;;10.40;95.70
19783;BME280;10051;40.294;-3.754;2024-02-16T08:43:05;94594.44;;;10.40;94.45
19783;BME280;10051;40.294;-3.754;2024-02-16T08:45:32;94620.13;;;10.74;93.76
19783;BME280;10051;40.294;-3.754;2024-02-16T08:47:58;94745.94;;;11.48;93.43
19783;BME280;10051;40.294;-3.754;2024-02-16T08:50:24;94687.09;;;11.13;93.20
19783;BME280;10051;40.294;-3.754;2024-02-16T08:52:50;94732.78;;;11.48;92.73
19783;BME280;10051;40.294;-3.754;2024-02-16T08:55:15;94693.63;;;11.26;92.89
19783;BME280;10051;40.294;-3.754;2024-02-16T08:57:41;94691.81;;;11.21;93.30
19783;BME280;10051;40.294;-3.754;2024-02-16T09:00:08;94717.22;;;11.52;93.32
19783;BME280;10051;40.294;-3.754;2024-02-16T09:02:34;94744.22;;;11.78;92.62
19783;BME280;10051;40.294;-3.754;2024-02-16T09:05:00;94712.59;;;11.83;91.24
19783;BME280;10051;40.294;-3.754;2024-02-16T09:07:26;94743.56;;;12.12;90.55
19783;BME280;10051;40.294;-3.754;2024-02-16T09:09:51;94709.53;;;12.16;90.01
19783;BME280;10051;40.294;-3.754;2024-02-16T09:12:17;94760.13;;;12.58;88.03
19783;BME280;10051;40.294;-3.754;2024-02-16T09:14:42;94721.41;;;12.48;87.74
19783;BME280;10051;40.294;-3.754;2024-02-16T09:17:08;94762.97;;;12.96;87.09
19783;BME280;10051;40.294;-3.754;2024-02-16T09:19:34;94725.53;;;12.89;85.66
19783;BME280;10051;40.294;-3.754;2024-02-16T09:22:00;94753.25;;;13.16;85.45
19783;BME280;10051;40.294;-3.754;2024-02-16T09:24:28;94749.16;;;13.29;84.16
19783;BME280;10051;40.294;-3.754;2024-02-16T09:26:55;94742.47;;;13.42;83.61
19783;BME280;10051;40.294;-3.754;2024-02-16T09:29:21;94737.59;;;13.49;82.13
19783;BME280;10051;40.294;-3.754;2024-02-16T09:31:49;94731.09;;;13.41;80.09
19783;BME280;10051;40.294;-3.754;2024-02-16T09:34:16;94675.00;;;13.25;80.75
19783;BME280;10051;40.294;-3.754;2024-02-16T09:36:42;94786.78;;;14.12;79.85
19783;BME280;10051;40.294;-3.754;2024-02-16T09:39:08;94737.31;;;13.94;79.17
19783;BME280;10051;40.294;-3.754;2024-02-16T09:41:35;94768.84;;;14.28;78.05
19783;BME280;10051;40.294;-3.754;2024-02-16T09:44:03;94738.53;;;14.21;77.96
19783;BME280;10051;40.294;-3.754;2024-02-16T09:46:33;94695.03;;;13.94;77.76
19783;BME280;10051;40.294;-3.754;2024-02-16T09:49:03;94787.97;;;14.58;76.93
19783;BME280;10051;40.294;-3.754;2024-02-16T09:51:29;94747.50;;;14.39;75.46
19783;BME280;10051;40.294;-3.754;2024-02-16T09:53:55;94720.81;;;14.02;73.53
19783;BME280;10051;40.294;-3.754;2024-02-16T09:56:21;94609.81;;;13.45;74.09
19783;BME280;10051;40.294;-3.754;2024-02-16T09:58:47;94707.28;;;14.23;74.74
19783;BME280;10051;40.294;-3.754;2024-02-16T10:01:19;94801.81;;;14.89;72.16
19783;BME280;10051;40.294;-3.754;2024-02-16T10:03:49;94764.38;;;14.43;70.78
19783;BME280;10051;40.294;-3.754;2024-02-16T10:06:15;94744.53;;;14.26;72.04
19783;BME280;10051;40.294;-3.754;2024-02-16T10:08:53;94766.69;;;14.50;72.27
19783;BME280;10051;40.294;-3.754;2024-02-16T10:11:21;94708.84;;;14.24;71.89
19783;BME280;10051;40.294;-3.754;2024-02-16T10:13:56;94807.56;;;14.57;72.45
19783;BME280;10051;40.294;-3.754;2024-02-16T10:16:23;94816.53;;;14.62;71.62
19783;BME280;10051;40.294;-3.754;2024-02-16T10:18:49;94779.13;;;14.49;72.51
19783;BME280;10051;40.294;-3.754;2024-02-16T10:21:24;94798.69;;;14.67;70.90
19783;BME280;10051;40.294;-3.754;2024-02-16T10:24:00;94771.53;;;14.62;71.29
19783;BME280;10051;40.294;-3.754;2024-02-16T10:26:29;94730.56;;;14.40;71.57
19783;BME280;10051;40.294;-3.754;2024-02-16T10:28:56;94818.72;;;14.93;71.85
19783;BME280;10051;40.294;-3.754;2024-02-16T10:31:24;94744.44;;;14.51;70.94
19783;BME280;10051;40.294;-3.754;2024-02-16T10:34:13;94828.16;;;14.99;70.28
19783;BME280;10051;40.294;-3.754;2024-02-16T10:36:41;94823.28;;;15.06;70.15
19783;BME280;10051;40.294;-3.754;2024-02-16T10:39:07;94830.97;;;15.22;70.33
19783;BME280;10051;40.294;-3.754;2024-02-16T10:41:38;94754.94;;;14.75;68.44
19783;BME280;10051;40.294;-3.754;2024-02-16T10:44:04;94733.84;;;14.70;68.92
19783;BME280;10051;40.294;-3.754;2024-02-16T10:46:31;94743.16;;;14.81;69.19
19783;BME280;10051;40.294;-3.754;2024-02-16T10:48:57;94759.69;;;14.92;69.50
19783;BME280;10051;40.294;-3.754;2024-02-16T10:51:30;94772.59;;;14.80;68.84
19783;BME280;10051;40.294;-3.754;2024-02-16T10:53:57;94782.13;;;14.95;69.64
19783;BME280;10051;40.294;-3.754;2024-02-16T10:56:33;94853.53;;;15.33;71.99
19783;BME280;10051;40.294;-3.754;2024-02-16T10:59:07;94807.75;;;14.99;69.47
19783;BME280;10051;40.294;-3.754;2024-02-16T11:01:44;94772.75;;;14.69;69.59
19783;BME280;10051;40.294;-3.754;2024-02-16T11:04:16;94828.59;;;15.20;69.32
19783;BME280;10051;40.294;-3.754;2024-02-16T11:06:52;94820.56;;;15.25;69.47
19783;BME280;10051;40.294;-3.754;2024-02-16T11:09:29;94844.03;;;15.46;69.19
19783;BME280;10051;40.294;-3.754;2024-02-16T11:11:59;94836.22;;;15.55;68.33
19783;BME280;10051;40.294;-3.754;2024-02-16T11:14:40;94851.44;;;15.63;66.95
19783;BME280;10051;40.294;-3.754;2024-02-16T11:17:09;94850.75;;;15.71;66.29
19783;BME280;10051;40.294;-3.754;2024-02-16T11:19:36;94796.94;;;15.43;65.77
19783;BME280;10051;40.294;-3.754;2024-02-16T11:22:06;94794.56;;;15.55;65.31
19783;BME280;10051;40.294;-3.754;2024-02-16T11:24:42;94836.94;;;15.88;64.96
19783;BME280;10051;40.294;-3.754;2024-02-16T11:27:10;94806.88;;;15.65;66.26
19783;BME280;10051;40.294;-3.754;2024-02-16T11:29:36;94850.78;;;15.99;67.66
19783;BME280;10051;40.294;-3.754;2024-02-16T11:32:04;94752.53;;;15.07;68.38
19783;BME280;10051;40.294;-3.754;2024-02-16T11:34:30;94751.44;;;14.94;68.54
19783;BME280;10051;40.294;-3.754;2024-02-16T11:37:00;94804.66;;;15.25;69.29
19783;BME280;10051;40.294;-3.754;2024-02-16T11:39:27;94788.16;;;14.81;67.49
19783;BME280;10051;40.294;-3.754;2024-02-16T11:42:07;94844.94;;;15.08;69.17
19783;BME280;10051;40.294;-3.754;2024-02-16T11:44:36;94841.50;;;15.08;70.16
19783;BME280;10051;40.294;-3.754;2024-02-16T11:47:06;94823.00;;;14.89;71.13
19783;BME280;10051;40.294;-3.754;2024-02-16T11:49:34;94785.34;;;14.58;71.90
19783;BME280;10051;40.294;-3.754;2024-02-16T11:51:59;94788.97;;;14.63;72.07
19783;BME280;10051;40.294;-3.754;2024-02-16T11:54:25;94781.00;;;14.49;72.57
19783;BME280;10051;40.294;-3.754;2024-02-16T11:56:51;94828.06;;;14.71;72.62
19783;BME280;10051;40.294;-3.754;2024-02-16T11:59:19;94790.69;;;14.53;72.90
19783;BME280;10051;40.294;-3.754;2024-02-16T12:01:59;94779.06;;;14.87;73.34
19783;BME280;10051;40.294;-3.754;2024-02-16T12:04:26;94726.63;;;14.90;73.46
19783;BME280;10051;40.294;-3.754;2024-02-16T12:06:59;94734.63;;;15.18;70.66
19783;BME280;10051;40.294;-3.754;2024-02-16T12:09:26;94740.31;;;15.53;69.84
19783;BME280;10051;40.294;-3.754;2024-02-16T12:11:53;94821.56;;;16.27;67.83
19783;BME280;10051;40.294;-3.754;2024-02-16T12:14:20;94726.13;;;15.85;67.29
19783;BME280;10051;40.294;-3.754;2024-02-16T12:16:50;94786.34;;;16.35;65.39
19783;BME280;10051;40.294;-3.754;2024-02-16T12:19:19;94706.09;;;15.93;64.68
19783;BME280;10051;40.294;-3.754;2024-02-16T12:21:55;94786.50;;;16.53;60.83
19783;BME280;10051;40.294;-3.754;2024-02-16T12:24:23;94748.47;;;16.21;62.42
19783;BME280;10051;40.294;-3.754;2024-02-16T12:26:49;94742.97;;;16.17;61.61
19783;BME280;10051;40.294;-3.754;2024-02-16T12:29:15;94758.94;;;16.03;62.38
19783;BME280;10051;40.294;-3.754;2024-02-16T12:31:43;94712.88;;;15.71;62.03
19783;BME280;10051;40.294;-3.754;2024-02-16T12:34:09;94779.09;;;16.27;61.97
19783;BME280;10051;40.294;-3.754;2024-02-16T12:36:36;94811.19;;;16.76;62.12
19783;BME280;10051;40.294;-3.754;2024-02-16T12:39:04;94807.78;;;16.99;62.26
19783;BME280;10051;40.294;-3.754;2024-02-16T12:41:30;94806.63;;;17.14;61.57
19783;BME280;10051;40.294;-3.754;2024-02-16T12:43:56;94806.97;;;17.21;60.15